createdAt,value
2019-03-29T00:00:25.158Z,0.00
2019-03-29T00:01:25.233Z,0.00
2019-03-29T00:02:25.089Z,0.00
2019-03-29T00:03:25.075Z,0.00
2019-03-29T00:04:25.062Z,0.00
2019-03-29T00:05:25.055Z,0.00
2019-03-29T00:06:25.110Z,0.00
2019-03-29T00:07:38.532Z,0.00
2019-03-29T00:08:26.042Z,0.00
2019-03-29T00:09:25.008Z,0.00
2019-03-29T00:10:25.003Z,0.00
2019-03-29T00:11:24.995Z,0.00
2019-03-29T00:12:25.046Z,0.00
2019-03-29T00:13:25.014Z,0.00
2019-03-29T00:14:24.956Z,0.00
2019-03-29T00:15:24.942Z,0.00
2019-03-29T00:16:25.335Z,0.00
2019-03-29T00:17:24.941Z,0.00
2019-03-29T00:18:24.931Z,0.00
2019-03-29T00:19:24.961Z,0.00
2019-03-29T00:20:24.887Z,0.00
2019-03-29T00:21:24.883Z,0.00
2019-03-29T00:22:24.868Z,0.00
2019-03-29T00:23:24.866Z,0.00
2019-03-29T00:24:24.848Z,0.00
2019-03-29T00:25:24.893Z,0.00
2019-03-29T00:26:25.596Z,0.00
2019-03-29T00:27:24.816Z,0.00
2019-03-29T00:28:24.808Z,0.00
2019-03-29T00:29:24.802Z,0.00
2019-03-29T00:30:24.778Z,0.00
2019-03-29T00:31:24.824Z,0.00
2019-03-29T00:32:24.756Z,0.00
2019-03-29T00:33:24.745Z,0.00
2019-03-29T00:34:24.734Z,0.00
2019-03-29T00:35:24.725Z,0.00
2019-03-29T00:36:25.317Z,0.00
2019-03-29T00:37:24.765Z,0.00
2019-03-29T00:38:24.696Z,0.00
2019-03-29T00:39:24.737Z,0.00
2019-03-29T00:40:24.666Z,0.00
2019-03-29T00:41:25.099Z,0.00
2019-03-29T00:42:24.648Z,0.00
2019-03-29T00:43:24.652Z,0.00
2019-03-29T00:44:24.629Z,0.00
2019-03-29T00:45:24.672Z,0.00
2019-03-29T00:46:24.601Z,0.00
2019-03-29T00:47:24.600Z,0.00
2019-03-29T00:48:24.577Z,0.00
2019-03-29T00:49:24.574Z,0.00
2019-03-29T00:50:24.644Z,0.00
2019-03-29T00:51:24.984Z,0.00
2019-03-29T00:52:24.545Z,0.00
2019-03-29T00:53:24.536Z,0.00
2019-03-29T00:54:24.528Z,0.00
2019-03-29T00:55:24.551Z,0.00
2019-03-29T00:56:24.506Z,0.00
2019-03-29T00:57:24.493Z,0.00
2019-03-29T00:58:24.474Z,0.00
2019-03-29T00:59:24.505Z,0.00
2019-03-29T01:00:24.459Z,0.00
2019-03-29T01:01:26.011Z,0.00
2019-03-29T01:02:24.497Z,0.00
2019-03-29T01:03:24.419Z,0.00
2019-03-29T01:04:24.409Z,0.00
2019-03-29T01:05:24.401Z,0.00
2019-03-29T01:06:24.399Z,0.00
2019-03-29T01:07:24.422Z,0.00
2019-03-29T01:08:24.360Z,0.00
2019-03-29T01:09:24.409Z,0.00
2019-03-29T01:10:24.341Z,0.00
2019-03-29T01:11:24.334Z,0.00
2019-03-29T01:12:24.369Z,0.00
2019-03-29T01:13:24.938Z,0.00
2019-03-29T01:14:24.301Z,0.00
2019-03-29T01:15:24.338Z,0.00
2019-03-29T01:16:24.279Z,0.00
2019-03-29T01:17:24.270Z,0.00
2019-03-29T01:18:24.304Z,0.00
2019-03-29T01:19:24.245Z,0.00
2019-03-29T01:20:24.230Z,0.00
2019-03-29T01:21:24.222Z,0.00
2019-03-29T01:22:24.229Z,0.00
2019-03-29T01:23:24.356Z,0.00
2019-03-29T01:24:24.189Z,0.00
2019-03-29T01:25:24.226Z,0.00
2019-03-29T01:26:24.181Z,0.00
2019-03-29T01:27:24.166Z,0.00
2019-03-29T01:28:24.149Z,0.00
2019-03-29T01:29:24.189Z,0.00
2019-03-29T01:30:24.123Z,0.00
2019-03-29T01:31:24.140Z,0.00
2019-03-29T01:32:24.103Z,0.00
2019-03-29T01:33:24.325Z,0.00
2019-03-29T01:34:24.115Z,0.00
2019-03-29T01:35:24.104Z,0.00
2019-03-29T01:36:24.110Z,0.00
2019-03-29T01:37:24.062Z,0.00
2019-03-29T01:38:24.567Z,0.00
2019-03-29T01:39:24.054Z,0.00
2019-03-29T01:40:24.019Z,0.00
2019-03-29T01:41:24.046Z,0.00
2019-03-29T01:42:24.012Z,0.00
2019-03-29T01:43:24.028Z,0.00
2019-03-29T01:44:24.052Z,0.00
2019-03-29T01:45:23.958Z,0.00
2019-03-29T01:46:23.944Z,0.00
2019-03-29T01:47:23.941Z,0.00
2019-03-29T01:48:23.930Z,0.00
2019-03-29T01:49:23.954Z,0.00
2019-03-29T01:50:23.901Z,0.00
2019-03-29T01:51:23.931Z,0.00
2019-03-29T01:52:23.879Z,0.00
2019-03-29T01:53:23.876Z,0.00
2019-03-29T01:54:23.909Z,0.00
2019-03-29T01:55:23.856Z,0.00
2019-03-29T01:56:23.834Z,0.00
2019-03-29T01:57:23.836Z,0.00
2019-03-29T01:58:25.010Z,0.00
2019-03-29T01:59:23.815Z,0.00
2019-03-29T02:00:23.834Z,0.00
2019-03-29T02:01:23.788Z,0.00
2019-03-29T02:02:23.795Z,0.00
2019-03-29T02:03:23.859Z,0.00
2019-03-29T02:04:23.788Z,0.00
2019-03-29T02:05:23.794Z,0.00
2019-03-29T02:06:23.726Z,0.00
2019-03-29T02:07:23.726Z,0.00
2019-03-29T02:08:35.131Z,0.00
2019-03-29T02:09:24.702Z,0.00
2019-03-29T02:10:23.791Z,0.00
2019-03-29T02:11:23.674Z,0.00
2019-03-29T02:12:23.734Z,0.00
2019-03-29T02:13:23.661Z,0.00
2019-03-29T02:14:23.649Z,0.00
2019-03-29T02:15:23.636Z,0.00
2019-03-29T02:16:23.633Z,0.00
2019-03-29T02:17:23.607Z,0.00
2019-03-29T02:18:23.642Z,0.00
2019-03-29T02:19:23.583Z,0.00
2019-03-29T02:20:23.905Z,0.00
2019-03-29T02:21:23.567Z,0.00
2019-03-29T02:22:23.554Z,0.00
2019-03-29T02:23:23.542Z,0.00
2019-03-29T02:24:24.013Z,0.00
2019-03-29T02:25:23.537Z,0.00
2019-03-29T02:26:23.552Z,0.00
2019-03-29T02:27:23.505Z,0.00
2019-03-29T02:28:23.495Z,0.00
2019-03-29T02:29:23.475Z,0.00
2019-03-29T02:30:23.476Z,0.00
2019-03-29T02:31:25.718Z,0.00
2019-03-29T02:32:24.927Z,0.00
2019-03-29T02:33:23.438Z,0.00
2019-03-29T02:34:23.441Z,0.00
2019-03-29T02:35:23.456Z,0.00
2019-03-29T02:36:23.418Z,0.00
2019-03-29T02:37:23.477Z,0.00
2019-03-29T02:38:23.701Z,0.00
2019-03-29T02:39:23.376Z,0.00
2019-03-29T02:40:23.353Z,0.00
2019-03-29T02:41:23.368Z,0.00
2019-03-29T02:42:23.346Z,0.00
2019-03-29T02:43:23.444Z,0.00
2019-03-29T02:44:23.327Z,0.00
2019-03-29T02:45:23.301Z,0.00
2019-03-29T02:46:23.515Z,0.00
2019-03-29T02:47:23.290Z,0.00
2019-03-29T02:48:23.267Z,0.00
2019-03-29T02:49:23.254Z,0.00
2019-03-29T02:50:23.249Z,0.00
2019-03-29T02:51:23.241Z,0.00
2019-03-29T02:52:23.271Z,0.00
2019-03-29T02:53:23.217Z,0.00
2019-03-29T02:54:23.210Z,0.00
2019-03-29T02:55:23.230Z,0.00
2019-03-29T02:56:23.177Z,0.00
2019-03-29T02:57:23.218Z,0.00
2019-03-29T02:58:23.163Z,0.00
2019-03-29T02:59:23.147Z,0.00
2019-03-29T03:00:23.134Z,0.00
2019-03-29T03:01:23.171Z,0.00
2019-03-29T03:02:26.216Z,0.00
2019-03-29T03:03:23.106Z,0.00
2019-03-29T03:04:23.117Z,0.00
2019-03-29T03:05:23.095Z,0.00
2019-03-29T03:06:23.074Z,0.00
2019-03-29T03:07:23.102Z,0.00
2019-03-29T03:08:23.046Z,0.00
2019-03-29T03:09:23.035Z,0.00
2019-03-29T03:10:23.028Z,0.00
2019-03-29T03:11:23.017Z,0.00
2019-03-29T03:12:23.008Z,0.00
2019-03-29T03:13:23.051Z,0.00
2019-03-29T03:14:22.987Z,0.00
2019-03-29T03:15:23.029Z,0.00
2019-03-29T03:16:22.965Z,0.00
2019-03-29T03:17:22.949Z,0.00
2019-03-29T03:18:22.941Z,0.00
2019-03-29T03:19:23.072Z,0.00
2019-03-29T03:20:22.925Z,0.00
2019-03-29T03:21:22.922Z,0.00
2019-03-29T03:22:22.897Z,0.00
2019-03-29T03:23:22.932Z,0.00
2019-03-29T03:24:22.922Z,0.00
2019-03-29T03:25:22.904Z,0.00
2019-03-29T03:26:22.860Z,0.00
2019-03-29T03:27:22.836Z,0.00
2019-03-29T03:28:22.822Z,0.00
2019-03-29T03:29:22.863Z,0.00
2019-03-29T03:30:22.841Z,0.00
2019-03-29T03:31:22.841Z,0.00
2019-03-29T03:32:22.780Z,0.00
2019-03-29T03:33:22.847Z,0.00
2019-03-29T03:34:22.840Z,0.00
2019-03-29T03:35:22.762Z,0.00
2019-03-29T03:36:22.784Z,0.00
2019-03-29T03:37:22.770Z,0.00
2019-03-29T03:38:22.719Z,0.00
2019-03-29T03:39:31.359Z,0.00
2019-03-29T03:40:23.702Z,0.00
2019-03-29T03:41:22.731Z,0.00
2019-03-29T03:42:22.745Z,0.00
2019-03-29T03:43:22.669Z,0.00
2019-03-29T03:44:22.661Z,0.00
2019-03-29T03:45:22.652Z,0.00
2019-03-29T03:46:22.627Z,0.00
2019-03-29T03:47:22.624Z,0.00
2019-03-29T03:48:22.658Z,0.00
2019-03-29T03:49:22.644Z,0.00
2019-03-29T03:50:22.590Z,0.00
2019-03-29T03:51:22.592Z,0.00
2019-03-29T03:52:22.567Z,0.00
2019-03-29T03:53:22.554Z,0.00
2019-03-29T03:54:22.548Z,0.00
2019-03-29T03:55:22.584Z,0.00
2019-03-29T03:56:22.528Z,0.00
2019-03-29T03:57:22.600Z,0.00
2019-03-29T03:58:22.516Z,0.00
2019-03-29T03:59:22.515Z,0.00
2019-03-29T04:00:22.480Z,0.00
2019-03-29T04:01:22.506Z,0.00
2019-03-29T04:02:22.466Z,0.00
2019-03-29T04:03:22.438Z,0.00
2019-03-29T04:04:22.427Z,0.00
2019-03-29T04:05:22.421Z,0.00
2019-03-29T04:06:22.404Z,0.00
2019-03-29T04:07:22.452Z,0.00
2019-03-29T04:08:22.384Z,0.00
2019-03-29T04:09:22.373Z,0.00
2019-03-29T04:10:22.363Z,0.00
2019-03-29T04:11:22.353Z,0.00
2019-03-29T04:12:22.381Z,0.00
2019-03-29T04:13:22.380Z,0.00
2019-03-29T04:14:22.326Z,0.00
2019-03-29T04:15:22.312Z,0.00
2019-03-29T04:16:22.373Z,0.00
2019-03-29T04:17:22.289Z,0.00
2019-03-29T04:18:22.283Z,0.00
2019-03-29T04:19:22.277Z,0.00
2019-03-29T04:20:22.298Z,0.00
2019-03-29T04:21:22.292Z,0.00
2019-03-29T04:22:22.233Z,0.00
2019-03-29T04:23:22.232Z,0.00
2019-03-29T04:24:22.241Z,0.00
2019-03-29T04:25:22.239Z,0.00
2019-03-29T04:26:22.195Z,0.00
2019-03-29T04:27:22.236Z,0.00
2019-03-29T04:28:22.184Z,0.00
2019-03-29T04:29:22.154Z,0.00
2019-03-29T04:30:22.138Z,0.00
2019-03-29T04:31:22.139Z,0.00
2019-03-29T04:32:22.144Z,0.00
2019-03-29T04:33:22.143Z,0.00
2019-03-29T04:34:22.107Z,0.00
2019-03-29T04:35:22.087Z,0.00
2019-03-29T04:36:22.119Z,0.00
2019-03-29T04:37:22.100Z,0.00
2019-03-29T04:38:22.081Z,0.00
2019-03-29T04:39:22.045Z,0.00
2019-03-29T04:40:22.039Z,0.00
2019-03-29T04:41:22.066Z,0.00
2019-03-29T04:42:22.014Z,0.00
2019-03-29T04:43:22.007Z,0.00
2019-03-29T04:44:22.007Z,0.00
2019-03-29T04:45:21.978Z,4.00
2019-03-29T04:46:22.055Z,0.00
2019-03-29T04:47:21.996Z,0.00
2019-03-29T04:48:21.951Z,4.00
2019-03-29T04:49:21.928Z,4.00
2019-03-29T04:50:22.014Z,8.00
2019-03-29T04:51:21.917Z,8.00
2019-03-29T04:52:21.895Z,8.00
2019-03-29T04:53:21.937Z,8.00
2019-03-29T04:54:21.871Z,12.00
2019-03-29T04:55:21.878Z,12.00
2019-03-29T04:56:21.853Z,12.00
2019-03-29T04:57:21.881Z,16.00
2019-03-29T04:58:21.841Z,20.00
2019-03-29T04:59:21.841Z,24.00
2019-03-29T05:00:21.811Z,32.00
2019-03-29T05:01:21.854Z,36.00
2019-03-29T05:02:21.794Z,40.00
2019-03-29T05:03:21.775Z,48.00
2019-03-29T05:04:21.759Z,60.00
2019-03-29T05:05:21.818Z,72.00
2019-03-29T05:06:21.739Z,80.00
2019-03-29T05:07:21.738Z,96.00
2019-03-29T05:08:21.754Z,108.00
2019-03-29T05:09:21.758Z,124.00
2019-03-29T05:10:22.050Z,140.00
2019-03-29T05:11:21.696Z,160.00
2019-03-29T05:12:21.716Z,180.00
2019-03-29T05:13:21.667Z,204.00
2019-03-29T05:14:21.671Z,228.00
2019-03-29T05:15:21.657Z,256.00
2019-03-29T05:16:21.626Z,288.00
2019-03-29T05:17:21.635Z,316.00
2019-03-29T05:18:21.664Z,348.00
2019-03-29T05:19:21.606Z,380.00
2019-03-29T05:20:21.604Z,420.00
2019-03-29T05:21:21.573Z,456.00
2019-03-29T05:22:21.574Z,496.00
2019-03-29T05:23:21.562Z,536.00
2019-03-29T05:24:21.595Z,576.00
2019-03-29T05:25:21.529Z,624.00
2019-03-29T05:26:21.565Z,668.00
2019-03-29T05:27:21.510Z,712.00
2019-03-29T05:28:21.513Z,756.00
2019-03-29T05:29:21.485Z,804.00
2019-03-29T05:30:21.527Z,852.00
2019-03-29T05:31:21.475Z,904.00
2019-03-29T05:32:21.473Z,956.00
2019-03-29T05:33:21.510Z,1004.00
2019-03-29T05:34:21.435Z,1060.00
2019-03-29T05:35:21.449Z,1108.00
2019-03-29T05:36:21.408Z,1160.00
2019-03-29T05:37:21.403Z,1216.00
2019-03-29T05:38:21.400Z,1268.00
2019-03-29T05:39:21.425Z,1320.00
2019-03-29T05:40:34.229Z,1376.00
2019-03-29T05:41:22.369Z,1428.00
2019-03-29T05:42:21.367Z,1480.00
2019-03-29T05:43:21.384Z,1536.00
2019-03-29T05:44:21.380Z,1588.00
2019-03-29T05:45:21.365Z,1640.00
2019-03-29T05:46:21.302Z,1688.00
2019-03-29T05:47:21.311Z,1744.00
2019-03-29T05:48:21.388Z,1792.00
2019-03-29T05:49:21.270Z,1844.00
2019-03-29T05:50:21.297Z,1892.00
2019-03-29T05:51:21.245Z,1940.00
2019-03-29T05:52:21.278Z,1988.00
2019-03-29T05:53:21.224Z,2040.00
2019-03-29T05:54:21.218Z,2084.00
2019-03-29T05:55:31.961Z,2136.00
2019-03-29T05:56:22.183Z,2176.00
2019-03-29T05:57:21.172Z,2224.00
2019-03-29T05:58:21.212Z,2264.00
2019-03-29T05:59:21.153Z,2308.00
2019-03-29T06:00:21.186Z,2352.00
2019-03-29T06:01:21.181Z,2400.00
2019-03-29T06:02:21.151Z,2444.00
2019-03-29T06:03:21.148Z,2488.00
2019-03-29T06:04:21.157Z,2528.00
2019-03-29T06:05:21.116Z,2572.00
2019-03-29T06:06:21.126Z,2608.00
2019-03-29T06:07:21.131Z,2644.00
2019-03-29T06:08:21.059Z,2684.00
2019-03-29T06:09:21.054Z,2724.00
2019-03-29T06:10:21.030Z,2760.00
2019-03-29T06:11:21.114Z,2796.00
2019-03-29T06:12:21.033Z,2828.00
2019-03-29T06:13:21.049Z,2860.00
2019-03-29T06:14:21.040Z,2896.00
2019-03-29T06:15:20.986Z,2932.00
2019-03-29T06:16:21.020Z,2968.00
2019-03-29T06:17:20.966Z,2996.00
2019-03-29T06:18:20.950Z,3036.00
2019-03-29T06:19:20.983Z,3068.00
2019-03-29T06:20:20.922Z,3100.00
2019-03-29T06:21:20.913Z,3132.00
2019-03-29T06:22:20.903Z,3164.00
2019-03-29T06:23:20.901Z,3200.00
2019-03-29T06:24:20.879Z,3232.00
2019-03-29T06:25:21.046Z,3260.00
2019-03-29T06:26:20.858Z,3292.00
2019-03-29T06:27:20.886Z,3324.00
2019-03-29T06:28:20.833Z,3352.00
2019-03-29T06:29:20.834Z,3380.00
2019-03-29T06:30:20.810Z,3408.00
2019-03-29T06:31:20.812Z,3436.00
2019-03-29T06:32:20.788Z,3456.00
2019-03-29T06:33:20.817Z,3484.00
2019-03-29T06:34:20.793Z,3512.00
2019-03-29T06:35:20.802Z,3532.00
2019-03-29T06:36:20.763Z,3548.00
2019-03-29T06:37:20.748Z,3576.00
2019-03-29T06:38:20.771Z,3604.00
2019-03-29T06:39:21.387Z,3620.00
2019-03-29T06:40:20.764Z,3640.00
2019-03-29T06:41:20.748Z,3660.00
2019-03-29T06:42:20.682Z,3684.00
2019-03-29T06:43:20.720Z,3704.00
2019-03-29T06:44:20.717Z,3716.00
2019-03-29T06:45:20.644Z,3740.00
2019-03-29T06:46:20.754Z,3760.00
2019-03-29T06:47:20.664Z,3772.00
2019-03-29T06:48:20.623Z,3792.00
2019-03-29T06:49:20.616Z,3804.00
2019-03-29T06:50:20.605Z,3820.00
2019-03-29T06:51:20.596Z,3840.00
2019-03-29T06:52:20.603Z,3852.00
2019-03-29T06:53:20.602Z,3868.00
2019-03-29T06:54:20.578Z,3892.00
2019-03-29T06:55:20.547Z,3900.00
2019-03-29T06:56:20.597Z,3920.00
2019-03-29T06:57:20.516Z,3936.00
2019-03-29T06:58:20.575Z,3956.00
2019-03-29T06:59:20.496Z,3976.00
2019-03-29T07:00:20.531Z,3996.00
2019-03-29T07:01:20.475Z,4012.00
2019-03-29T07:02:20.533Z,4028.00
2019-03-29T07:03:20.461Z,4048.00
2019-03-29T07:04:20.437Z,4060.00
2019-03-29T07:05:20.519Z,4080.00
2019-03-29T07:06:20.420Z,4096.00
2019-03-29T07:07:20.417Z,4112.00
2019-03-29T07:08:20.426Z,4128.00
2019-03-29T07:09:20.423Z,4144.00
2019-03-29T07:10:20.471Z,4156.00
2019-03-29T07:11:20.958Z,4172.00
2019-03-29T07:12:20.421Z,4192.00
2019-03-29T07:13:20.958Z,4204.00
2019-03-29T07:14:20.417Z,4220.00
2019-03-29T07:15:20.318Z,4232.00
2019-03-29T07:16:20.324Z,4240.00
2019-03-29T07:17:20.333Z,4256.00
2019-03-29T07:18:20.463Z,4268.00
2019-03-29T07:19:20.295Z,4284.00
2019-03-29T07:20:20.303Z,4292.00
2019-03-29T07:21:21.883Z,4296.00
2019-03-29T07:22:22.053Z,4308.00
2019-03-29T07:23:20.276Z,4320.00
2019-03-29T07:24:20.218Z,4328.00
2019-03-29T07:25:20.273Z,4340.00
2019-03-29T07:26:20.232Z,4348.00
2019-03-29T07:27:20.190Z,4356.00
2019-03-29T07:28:20.184Z,4368.00
2019-03-29T07:29:20.156Z,4380.00
2019-03-29T07:30:20.148Z,4392.00
2019-03-29T07:31:20.246Z,4396.00
2019-03-29T07:32:20.177Z,4404.00
2019-03-29T07:33:20.149Z,4412.00
2019-03-29T07:34:20.115Z,4420.00
2019-03-29T07:35:20.159Z,4428.00
2019-03-29T07:36:20.170Z,4440.00
2019-03-29T07:37:20.091Z,4444.00
2019-03-29T07:38:20.068Z,4456.00
2019-03-29T07:39:20.051Z,4464.00
2019-03-29T07:40:20.084Z,4476.00
2019-03-29T07:41:31.091Z,4480.00
2019-03-29T07:42:21.150Z,4488.00
2019-03-29T07:43:20.013Z,4500.00
2019-03-29T07:44:20.042Z,4504.00
2019-03-29T07:45:19.987Z,4520.00
2019-03-29T07:46:20.533Z,4528.00
2019-03-29T07:47:20.002Z,4532.00
2019-03-29T07:48:20.027Z,4544.00
2019-03-29T07:49:20.036Z,4560.00
2019-03-29T07:50:19.960Z,4568.00
2019-03-29T07:51:19.976Z,4572.00
2019-03-29T07:52:19.951Z,4580.00
2019-03-29T07:53:20.015Z,4588.00
2019-03-29T07:54:19.896Z,4592.00
2019-03-29T07:55:19.922Z,4600.00
2019-03-29T07:56:20.162Z,4608.00
2019-03-29T07:57:19.901Z,4616.00
2019-03-29T07:58:19.837Z,4620.00
2019-03-29T07:59:20.054Z,4624.00
2019-03-29T08:00:20.622Z,4628.00
2019-03-29T08:01:19.868Z,4636.00
2019-03-29T08:02:19.815Z,4640.00
2019-03-29T08:03:21.297Z,4644.00
2019-03-29T08:04:21.674Z,4652.00
2019-03-29T08:05:19.830Z,4660.00
2019-03-29T08:06:20.006Z,4664.00
2019-03-29T08:07:27.267Z,4676.00
2019-03-29T08:08:25.035Z,4680.00
2019-03-29T08:09:22.551Z,4684.00
2019-03-29T08:10:27.415Z,4688.00
2019-03-29T08:11:26.247Z,4692.00
2019-03-29T08:12:22.078Z,4696.00
2019-03-29T08:13:19.748Z,4704.00
2019-03-29T08:14:19.673Z,4708.00
2019-03-29T08:15:19.685Z,4716.00
2019-03-29T08:16:19.696Z,4724.00
2019-03-29T08:17:19.628Z,4728.00
2019-03-29T08:18:19.692Z,4732.00
2019-03-29T08:19:19.663Z,4736.00
2019-03-29T08:20:41.924Z,4744.00
2019-03-29T08:21:20.597Z,4744.00
2019-03-29T08:22:19.636Z,4748.00
2019-03-29T08:23:19.596Z,4752.00
2019-03-29T08:24:19.606Z,4752.00
2019-03-29T08:25:19.551Z,4756.00
2019-03-29T08:26:19.559Z,4760.00
2019-03-29T08:27:19.515Z,4764.00
2019-03-29T08:28:19.507Z,4772.00
2019-03-29T08:29:19.700Z,4776.00
2019-03-29T08:30:19.564Z,4780.00
2019-03-29T08:31:19.482Z,4776.00
2019-03-29T08:32:19.511Z,4780.00
2019-03-29T08:33:19.541Z,4780.00
2019-03-29T08:34:19.738Z,4784.00
2019-03-29T08:35:19.440Z,4788.00
2019-03-29T08:36:19.473Z,4788.00
2019-03-29T08:37:19.444Z,4792.00
2019-03-29T08:38:19.441Z,4800.00
2019-03-29T08:39:27.911Z,4808.00
2019-03-29T08:40:20.541Z,4812.00
2019-03-29T08:41:25.224Z,4824.00
2019-03-29T08:42:21.286Z,4824.00
2019-03-29T08:43:19.501Z,4828.00
2019-03-29T08:44:19.444Z,4832.00
2019-03-29T08:45:19.328Z,4828.00
2019-03-29T08:46:19.320Z,4832.00
2019-03-29T08:47:19.337Z,4840.00
2019-03-29T08:48:19.343Z,4836.00
2019-03-29T08:49:19.419Z,4844.00
2019-03-29T08:50:19.398Z,4848.00
2019-03-29T08:51:19.286Z,4856.00
2019-03-29T08:52:19.328Z,4864.00
2019-03-29T08:53:19.238Z,4872.00
2019-03-29T08:54:19.258Z,4880.00
2019-03-29T08:55:19.239Z,4884.00
2019-03-29T08:56:19.211Z,4884.00
2019-03-29T08:57:19.195Z,4896.00
2019-03-29T08:58:19.590Z,4896.00
2019-03-29T08:59:19.205Z,4908.00
2019-03-29T09:00:19.161Z,4912.00
2019-03-29T09:01:19.822Z,4916.00
2019-03-29T09:02:19.175Z,4924.00
2019-03-29T09:03:19.205Z,4924.00
2019-03-29T09:04:21.692Z,4924.00
2019-03-29T09:05:19.162Z,4932.00
2019-03-29T09:06:19.223Z,4940.00
2019-03-29T09:07:19.104Z,4936.00
2019-03-29T09:08:20.038Z,4940.00
2019-03-29T09:09:19.140Z,4940.00
2019-03-29T09:10:19.097Z,4944.00
2019-03-29T09:11:19.099Z,4940.00
2019-03-29T09:12:19.029Z,4944.00
2019-03-29T09:13:19.057Z,4952.00
2019-03-29T09:14:19.003Z,4956.00
2019-03-29T09:15:19.051Z,4960.00
2019-03-29T09:16:18.994Z,4956.00
2019-03-29T09:17:20.731Z,4956.00
2019-03-29T09:18:18.965Z,4960.00
2019-03-29T09:19:19.007Z,4964.00
2019-03-29T09:20:19.003Z,4964.00
2019-03-29T09:21:19.001Z,4976.00
2019-03-29T09:22:18.918Z,4976.00
2019-03-29T09:23:18.894Z,4980.00
2019-03-29T09:24:22.297Z,4988.00
2019-03-29T09:25:21.006Z,4996.00
2019-03-29T09:26:18.928Z,5008.00
2019-03-29T09:27:18.874Z,5012.00
2019-03-29T09:28:18.891Z,5020.00
2019-03-29T09:29:18.888Z,5028.00
2019-03-29T09:30:19.149Z,5032.00
2019-03-29T09:31:18.956Z,5040.00
2019-03-29T09:32:18.850Z,5052.00
2019-03-29T09:33:19.019Z,5060.00
2019-03-29T09:34:18.792Z,5076.00
2019-03-29T09:35:18.794Z,5084.00
2019-03-29T09:36:18.790Z,5092.00
2019-03-29T09:37:18.881Z,5096.00
2019-03-29T09:38:18.748Z,5104.00
2019-03-29T09:39:18.714Z,5116.00
2019-03-29T09:40:18.731Z,5124.00
2019-03-29T09:41:18.765Z,5148.00
2019-03-29T09:42:29.216Z,5152.00
2019-03-29T09:43:19.732Z,5156.00
2019-03-29T09:44:18.731Z,5168.00
2019-03-29T09:45:18.691Z,5176.00
2019-03-29T09:46:18.638Z,5184.00
2019-03-29T09:47:18.662Z,5196.00
2019-03-29T09:48:18.734Z,5200.00
2019-03-29T09:49:18.622Z,5208.00
2019-03-29T09:50:18.593Z,5220.00
2019-03-29T09:51:18.586Z,5236.00
2019-03-29T09:52:18.576Z,5244.00
2019-03-29T09:53:18.625Z,5252.00
2019-03-29T09:54:20.375Z,5264.00
2019-03-29T09:55:19.212Z,5272.00
2019-03-29T09:56:37.562Z,5280.00
2019-03-29T09:57:19.510Z,5292.00
2019-03-29T09:58:18.553Z,5304.00
2019-03-29T09:59:18.528Z,5316.00
2019-03-29T10:00:22.970Z,5320.00
2019-03-29T10:01:20.889Z,5320.00
2019-03-29T10:02:18.498Z,5340.00
2019-03-29T10:03:18.504Z,5344.00
2019-03-29T10:04:18.435Z,5352.00
2019-03-29T10:05:20.203Z,5352.00
2019-03-29T10:06:18.530Z,5360.00
2019-03-29T10:07:18.401Z,5376.00
2019-03-29T10:08:18.415Z,5368.00
2019-03-29T10:09:18.428Z,5380.00
2019-03-29T10:10:19.211Z,5416.00
2019-03-29T10:11:20.533Z,5436.00
2019-03-29T10:12:18.448Z,5448.00
2019-03-29T10:13:18.482Z,5464.00
2019-03-29T10:14:18.313Z,5480.00
2019-03-29T10:15:18.340Z,5500.00
2019-03-29T10:16:18.391Z,5516.00
2019-03-29T10:17:18.295Z,5512.00
2019-03-29T10:18:18.332Z,5528.00
2019-03-29T10:19:18.277Z,5540.00
2019-03-29T10:20:18.416Z,5560.00
2019-03-29T10:21:18.299Z,5572.00
2019-03-29T10:22:18.228Z,5608.00
2019-03-29T10:23:18.231Z,5624.00
2019-03-29T10:24:18.247Z,5628.00
2019-03-29T10:25:20.138Z,5616.00
2019-03-29T10:26:18.216Z,5620.00
2019-03-29T10:27:19.231Z,5620.00
2019-03-29T10:28:18.231Z,5612.00
2019-03-29T10:29:18.152Z,5620.00
2019-03-29T10:30:19.097Z,5664.00
2019-03-29T10:31:31.498Z,5700.00
2019-03-29T10:32:19.131Z,5716.00
2019-03-29T10:33:18.169Z,5748.00
2019-03-29T10:34:18.749Z,5152.00
2019-03-29T10:35:18.858Z,5624.00
2019-03-29T10:36:19.863Z,5728.00
2019-03-29T10:37:18.089Z,5400.00
2019-03-29T10:38:19.401Z,5184.00
2019-03-29T10:39:18.069Z,4940.00
2019-03-29T10:40:21.675Z,5180.00
2019-03-29T10:41:18.050Z,5932.00
2019-03-29T10:42:18.167Z,6224.00
2019-03-29T10:43:18.047Z,6224.00
2019-03-29T10:44:18.068Z,6160.00
2019-03-29T10:45:17.966Z,6108.00
2019-03-29T10:46:18.077Z,6184.00
2019-03-29T10:47:18.536Z,6064.00
2019-03-29T10:48:19.172Z,5952.00
2019-03-29T10:49:18.026Z,6272.00
2019-03-29T10:50:17.988Z,6344.00
2019-03-29T10:51:17.890Z,6420.00
2019-03-29T10:52:17.931Z,6396.00
2019-03-29T10:53:17.885Z,6388.00
2019-03-29T10:54:17.921Z,6336.00
2019-03-29T10:55:17.909Z,6380.00
2019-03-29T10:56:17.844Z,6300.00
2019-03-29T10:57:18.048Z,6416.00
2019-03-29T10:58:17.822Z,6412.00
2019-03-29T10:59:27.261Z,6408.00
2019-03-29T11:00:21.479Z,6256.00
2019-03-29T11:01:17.957Z,6292.00
2019-03-29T11:02:17.792Z,6336.00
2019-03-29T11:03:18.101Z,6400.00
2019-03-29T11:04:18.298Z,6452.00
2019-03-29T11:05:18.771Z,6496.00
2019-03-29T11:06:19.598Z,6484.00
2019-03-29T11:07:17.758Z,6512.00
2019-03-29T11:08:17.994Z,6544.00
2019-03-29T11:09:17.923Z,6624.00
2019-03-29T11:10:17.727Z,6664.00
2019-03-29T11:11:17.845Z,6728.00
2019-03-29T11:12:17.769Z,6780.00
2019-03-29T11:13:18.080Z,6800.00
2019-03-29T11:14:17.830Z,6796.00
2019-03-29T11:15:17.639Z,6836.00
2019-03-29T11:16:17.715Z,6900.00
2019-03-29T11:17:17.762Z,7024.00
2019-03-29T11:18:17.830Z,7228.00
2019-03-29T11:19:18.315Z,7520.00
2019-03-29T11:20:18.886Z,7716.00
2019-03-29T11:21:17.781Z,7904.00
2019-03-29T11:22:17.916Z,8068.00
2019-03-29T11:23:17.585Z,8124.00
2019-03-29T11:24:17.547Z,8076.00
2019-03-29T11:25:17.541Z,8024.00
2019-03-29T11:26:17.510Z,7936.00
2019-03-29T11:27:17.578Z,8092.00
2019-03-29T11:28:17.498Z,8176.00
2019-03-29T11:29:17.816Z,8336.00
2019-03-29T11:30:17.969Z,8500.00
2019-03-29T11:31:17.475Z,8492.00
2019-03-29T11:32:17.577Z,8368.00
2019-03-29T11:33:17.456Z,8300.00
2019-03-29T11:34:20.726Z,8296.00
2019-03-29T11:35:17.581Z,8384.00
2019-03-29T11:36:17.638Z,8512.00
2019-03-29T11:37:19.592Z,8648.00
2019-03-29T11:38:17.417Z,8632.00
2019-03-29T11:39:17.414Z,8604.00
2019-03-29T11:40:17.352Z,8740.00
2019-03-29T11:41:17.431Z,8924.00
2019-03-29T11:42:17.343Z,9036.00
2019-03-29T11:43:26.724Z,9140.00
2019-03-29T11:44:18.348Z,9272.00
2019-03-29T11:45:17.307Z,9468.00
2019-03-29T11:46:17.371Z,9684.00
2019-03-29T11:47:17.290Z,9760.00
2019-03-29T11:48:17.302Z,9760.00
2019-03-29T11:49:17.357Z,9560.00
2019-03-29T11:50:17.318Z,9452.00
2019-03-29T11:51:19.695Z,9380.00
2019-03-29T11:52:17.284Z,9376.00
2019-03-29T11:53:17.756Z,9500.00
2019-03-29T11:54:18.910Z,9552.00
2019-03-29T11:55:17.304Z,9428.00
2019-03-29T11:56:17.171Z,9248.00
2019-03-29T11:57:17.155Z,9076.00
2019-03-29T11:58:17.158Z,8960.00
2019-03-29T11:59:17.258Z,8848.00
2019-03-29T12:00:17.131Z,8780.00
2019-03-29T12:01:17.118Z,8792.00
2019-03-29T12:02:30.654Z,8912.00
2019-03-29T12:03:18.108Z,9088.00
2019-03-29T12:04:17.091Z,9172.00
2019-03-29T12:05:18.160Z,9252.00
2019-03-29T12:06:17.056Z,9360.00
2019-03-29T12:07:17.212Z,9440.00
2019-03-29T12:08:17.048Z,9480.00
2019-03-29T12:09:17.088Z,9472.00
2019-03-29T12:10:17.014Z,9444.00
2019-03-29T12:11:17.162Z,9432.00
2019-03-29T12:12:17.051Z,9412.00
2019-03-29T12:13:18.006Z,9364.00
2019-03-29T12:14:18.264Z,9328.00
2019-03-29T12:15:17.065Z,9308.00
2019-03-29T12:16:16.959Z,9280.00
2019-03-29T12:17:17.494Z,9260.00
2019-03-29T12:18:16.971Z,9412.00
2019-03-29T12:19:16.922Z,9572.00
2019-03-29T12:20:16.904Z,10060.00
2019-03-29T12:21:16.955Z,10320.00
2019-03-29T12:22:16.947Z,10336.00
2019-03-29T12:23:16.915Z,10196.00
2019-03-29T12:24:16.862Z,9968.00
2019-03-29T12:25:16.946Z,9744.00
2019-03-29T12:26:16.857Z,9716.00
2019-03-29T12:27:18.046Z,9764.00
2019-03-29T12:28:16.876Z,9836.00
2019-03-29T12:29:16.884Z,9944.00
2019-03-29T12:30:30.617Z,10024.00
2019-03-29T12:31:17.912Z,10012.00
2019-03-29T12:32:16.782Z,10028.00
2019-03-29T12:33:16.758Z,10116.00